createdAt,value
2023-03-29T00:01:00.175Z,3.96
2023-03-29T00:03:27.730Z,3.91
2023-03-29T00:06:03.266Z,3.98
2023-03-29T00:08:31.595Z,3.90
2023-03-29T00:10:59.477Z,3.75
2023-03-29T00:13:27.320Z,3.80
2023-03-29T00:15:55.325Z,3.79
2023-03-29T00:18:22.996Z,3.80
2023-03-29T00:20:57.065Z,3.80
2023-03-29T00:23:25.087Z,3.82
2023-03-29T00:25:55.837Z,3.82
2023-03-29T00:28:23.038Z,3.87
2023-03-29T00:30:52.715Z,3.83
2023-03-29T00:33:22.995Z,3.92
2023-03-29T00:35:53.352Z,3.95
2023-03-29T00:38:20.030Z,4.00
2023-03-29T00:40:47.472Z,3.90
2023-03-29T00:43:14.757Z,3.84
2023-03-29T00:45:42.229Z,3.83
2023-03-29T00:48:16.531Z,3.66
2023-03-29T00:51:04.061Z,3.72
2023-03-29T00:53:38.533Z,3.80
2023-03-29T00:56:19.966Z,3.55
2023-03-29T00:59:04.924Z,3.69
2023-03-29T01:01:42.160Z,3.80
2023-03-29T01:04:18.603Z,3.68
2023-03-29T01:06:57.235Z,3.62
2023-03-29T01:09:27.207Z,3.69
2023-03-29T01:11:57.645Z,3.62
2023-03-29T01:14:35.834Z,3.65
2023-03-29T01:17:02.478Z,3.61
2023-03-29T01:19:34.446Z,3.58
2023-03-29T01:22:15.651Z,3.58
2023-03-29T01:25:14.647Z,3.49
2023-03-29T01:27:53.373Z,3.56
2023-03-29T01:30:29.045Z,3.46
2023-03-29T01:33:02.851Z,3.40
2023-03-29T01:35:40.333Z,3.29
2023-03-29T01:38:16.225Z,3.21
2023-03-29T01:40:42.796Z,3.35
2023-03-29T01:43:12.406Z,3.33
2023-03-29T01:45:47.545Z,3.32
2023-03-29T01:48:24.766Z,3.30
2023-03-29T01:50:58.471Z,3.33
2023-03-29T01:53:49.671Z,3.38
2023-03-29T01:56:26.531Z,3.30
2023-03-29T01:58:58.254Z,3.40
2023-03-29T02:01:30.037Z,3.19
2023-03-29T02:04:02.828Z,3.18
2023-03-29T02:06:32.966Z,3.18
2023-03-29T02:09:00.171Z,3.24
2023-03-29T02:11:29.288Z,3.28
2023-03-29T02:13:57.331Z,3.25
2023-03-29T02:16:23.903Z,3.35
2023-03-29T02:18:53.032Z,3.39
2023-03-29T02:21:37.331Z,3.43
2023-03-29T02:24:07.589Z,3.43
2023-03-29T02:26:34.635Z,3.51
2023-03-29T02:29:01.505Z,3.61
2023-03-29T02:31:43.815Z,3.66
2023-03-29T02:34:26.840Z,3.71
2023-03-29T02:37:03.108Z,3.58
2023-03-29T02:39:32.408Z,3.36
2023-03-29T02:41:59.623Z,3.57
2023-03-29T02:44:29.829Z,3.57
2023-03-29T02:47:22.093Z,3.60
2023-03-29T02:49:48.887Z,3.59
2023-03-29T02:52:19.465Z,3.67
2023-03-29T02:54:48.571Z,3.58
2023-03-29T02:57:15.186Z,3.55
2023-03-29T02:59:44.213Z,3.50
2023-03-29T03:02:11.854Z,3.55
2023-03-29T03:04:38.495Z,3.72
2023-03-29T03:07:05.439Z,3.76
2023-03-29T03:09:32.055Z,3.69
2023-03-29T03:11:58.623Z,3.72
2023-03-29T03:14:25.406Z,3.82
2023-03-29T03:16:52.870Z,3.75
2023-03-29T03:19:19.908Z,3.75
2023-03-29T03:21:47.072Z,3.87
2023-03-29T03:24:13.774Z,3.72
2023-03-29T03:26:40.349Z,3.59
2023-03-29T03:29:06.969Z,3.65
2023-03-29T03:31:33.728Z,3.33
2023-03-29T03:34:00.421Z,3.25
2023-03-29T03:36:29.069Z,3.31
2023-03-29T03:38:55.723Z,3.34
2023-03-29T03:41:22.718Z,3.36
2023-03-29T03:43:49.639Z,3.44
2023-03-29T03:46:17.230Z,3.48
2023-03-29T03:48:47.137Z,3.36
2023-03-29T03:51:14.113Z,3.38
2023-03-29T03:53:41.078Z,3.47
2023-03-29T03:56:10.930Z,3.43
2023-03-29T03:58:38.119Z,3.50
2023-03-29T04:01:06.069Z,3.39
2023-03-29T04:03:32.716Z,3.32
2023-03-29T04:06:01.250Z,3.45
2023-03-29T04:08:28.009Z,3.52
2023-03-29T04:10:56.255Z,3.46
2023-03-29T04:13:23.636Z,3.31
2023-03-29T04:15:54.133Z,3.29
2023-03-29T04:18:21.570Z,3.31
2023-03-29T04:20:48.841Z,3.30
2023-03-29T04:23:16.028Z,3.39
2023-03-29T04:25:42.676Z,3.37
2023-03-29T04:28:10.926Z,3.38
2023-03-29T04:30:37.551Z,3.30
2023-03-29T04:33:04.301Z,3.24
2023-03-29T04:35:30.941Z,3.28
2023-03-29T04:37:57.556Z,3.29
2023-03-29T04:40:24.159Z,3.31
2023-03-29T04:42:51.740Z,3.26
2023-03-29T04:45:18.600Z,3.30
2023-03-29T04:47:46.230Z,3.29
2023-03-29T04:50:13.905Z,3.30
2023-03-29T04:52:41.007Z,3.25
2023-03-29T04:55:08.262Z,3.37
2023-03-29T04:57:34.920Z,3.49
2023-03-29T05:00:01.601Z,3.54
2023-03-29T05:02:30.988Z,3.60
2023-03-29T05:04:57.648Z,3.65
2023-03-29T05:07:24.657Z,3.72
2023-03-29T05:09:51.276Z,3.79
2023-03-29T05:12:17.792Z,3.84
2023-03-29T05:14:44.427Z,3.90
2023-03-29T05:17:11.003Z,3.96
2023-03-29T05:19:38.414Z,3.91
2023-03-29T05:22:05.010Z,3.87
2023-03-29T05:24:31.748Z,3.84
2023-03-29T05:26:58.377Z,4.01
2023-03-29T05:29:24.989Z,4.04
2023-03-29T05:31:52.576Z,4.17
2023-03-29T05:34:20.058Z,4.19
2023-03-29T05:36:46.602Z,4.22
2023-03-29T05:39:13.528Z,4.25
2023-03-29T05:41:40.472Z,4.30
2023-03-29T05:44:07.345Z,4.30
2023-03-29T05:46:34.289Z,4.34
2023-03-29T05:49:01.720Z,4.34
2023-03-29T05:51:28.403Z,4.28
2023-03-29T05:53:54.936Z,4.28
2023-03-29T05:56:22.512Z,4.27
2023-03-29T05:58:49.530Z,4.14
2023-03-29T06:01:17.963Z,4.08
2023-03-29T06:03:46.259Z,4.09
2023-03-29T06:06:16.562Z,4.01
2023-03-29T06:08:44.528Z,4.07
2023-03-29T06:11:13.256Z,4.14
2023-03-29T06:13:42.197Z,4.29
2023-03-29T06:16:10.432Z,4.27
2023-03-29T06:18:39.748Z,4.30
2023-03-29T06:21:07.997Z,4.43
2023-03-29T06:23:34.926Z,4.49
2023-03-29T06:26:01.766Z,4.39
2023-03-29T06:28:28.679Z,4.27
2023-03-29T06:30:56.661Z,4.19
2023-03-29T06:33:25.278Z,4.09
2023-03-29T06:35:51.912Z,4.05
2023-03-29T06:38:24.710Z,4.07
2023-03-29T06:40:52.761Z,4.20
2023-03-29T06:43:19.341Z,4.18
2023-03-29T06:45:45.866Z,4.15
2023-03-29T06:48:12.578Z,4.37
2023-03-29T06:50:39.093Z,4.56
2023-03-29T06:53:05.701Z,4.56
2023-03-29T06:55:32.393Z,4.74
2023-03-29T06:58:02.205Z,4.89
2023-03-29T07:00:29.907Z,4.92
2023-03-29T07:02:58.727Z,4.89
2023-03-29T07:05:28.282Z,4.81
2023-03-29T07:07:56.729Z,4.77
2023-03-29T07:10:32.147Z,4.91
2023-03-29T07:13:02.708Z,5.01
2023-03-29T07:15:29.559Z,5.15
2023-03-29T07:17:57.503Z,5.14
2023-03-29T07:20:25.254Z,5.12
2023-03-29T07:22:51.885Z,5.23
2023-03-29T07:25:19.857Z,5.15
2023-03-29T07:27:46.524Z,5.08
2023-03-29T07:30:19.084Z,5.05
2023-03-29T07:32:46.761Z,5.04
2023-03-29T07:35:14.958Z,4.92
2023-03-29T07:37:42.973Z,5.05
2023-03-29T07:40:16.094Z,4.99
2023-03-29T07:42:44.012Z,5.12
2023-03-29T07:45:11.477Z,5.23
2023-03-29T07:47:38.459Z,5.28
2023-03-29T07:50:07.438Z,5.31
2023-03-29T07:52:36.506Z,5.29
2023-03-29T07:55:03.056Z,5.32
2023-03-29T07:57:29.683Z,5.27
2023-03-29T07:59:56.364Z,5.29
2023-03-29T08:02:22.911Z,5.39
2023-03-29T08:04:49.885Z,5.40
2023-03-29T08:07:19.910Z,5.31
2023-03-29T08:09:46.721Z,5.24
2023-03-29T08:12:13.280Z,5.26
2023-03-29T08:14:39.885Z,5.44
2023-03-29T08:17:06.543Z,5.49
2023-03-29T08:19:33.149Z,5.56
2023-03-29T08:22:00.699Z,5.51
2023-03-29T08:24:27.334Z,5.53
2023-03-29T08:26:54.012Z,5.84
2023-03-29T08:29:20.707Z,6.09
2023-03-29T08:31:47.239Z,6.52
2023-03-29T08:34:14.290Z,6.65
2023-03-29T08:36:41.369Z,6.74
2023-03-29T08:39:08.013Z,6.42
2023-03-29T08:41:52.918Z,6.57
2023-03-29T08:44:22.511Z,6.56
2023-03-29T08:47:10.607Z,6.63
2023-03-29T08:49:39.788Z,6.46
2023-03-29T08:52:19.768Z,6.63
2023-03-29T08:54:48.737Z,6.68
2023-03-29T08:57:28.148Z,6.83
2023-03-29T08:59:57.435Z,7.01
2023-03-29T09:02:30.584Z,7.21
2023-03-29T09:05:06.044Z,7.23
2023-03-29T09:07:32.691Z,7.65
2023-03-29T09:09:59.575Z,7.72
2023-03-29T09:12:37.956Z,8.11
2023-03-29T09:15:11.686Z,8.64
2023-03-29T09:18:00.081Z,8.90
2023-03-29T09:20:55.825Z,8.07
2023-03-29T09:23:53.197Z,8.66
2023-03-29T09:26:24.138Z,9.73
2023-03-29T09:29:00.506Z,9.67
2023-03-29T09:31:35.303Z,10.04
2023-03-29T09:34:13.679Z,9.95
2023-03-29T09:36:53.372Z,11.18
2023-03-29T09:39:21.284Z,10.58
2023-03-29T09:41:53.853Z,10.01
2023-03-29T09:44:30.777Z,10.46
2023-03-29T09:47:38.151Z,10.54
2023-03-29T09:50:27.216Z,9.97
2023-03-29T09:52:57.344Z,9.82
2023-03-29T09:55:28.711Z,10.26
2023-03-29T09:58:00.696Z,10.36
2023-03-29T10:00:27.372Z,10.44
2023-03-29T10:02:57.195Z,10.44
2023-03-29T10:05:25.994Z,10.31
2023-03-29T10:07:57.693Z,10.54
2023-03-29T10:10:35.043Z,11.06
2023-03-29T10:13:06.018Z,10.99
2023-03-29T10:15:32.908Z,11.11
2023-03-29T10:18:03.396Z,11.48
2023-03-29T10:20:30.175Z,11.41
2023-03-29T10:22:59.133Z,11.28
2023-03-29T10:25:31.818Z,11.02
2023-03-29T10:28:08.408Z,10.89
2023-03-29T10:30:38.242Z,11.16
2023-03-29T10:33:07.484Z,11.40
2023-03-29T10:35:44.333Z,11.21
2023-03-29T10:38:17.464Z,11.26
2023-03-29T10:40:49.891Z,11.19
2023-03-29T10:43:29.794Z,11.48
2023-03-29T10:46:08.095Z,11.62
2023-03-29T10:48:36.134Z,11.60
2023-03-29T10:51:05.608Z,11.75
2023-03-29T10:53:34.984Z,11.50
2023-03-29T10:56:20.323Z,11.71
2023-03-29T10:59:24.419Z,11.83
2023-03-29T11:02:14.197Z,11.69
2023-03-29T11:05:00.289Z,11.85
2023-03-29T11:07:33.460Z,11.75
2023-03-29T11:10:18.217Z,11.67
2023-03-29T11:12:50.062Z,11.75
2023-03-29T11:15:38.497Z,11.99
2023-03-29T11:18:27.661Z,11.95
2023-03-29T11:21:25.142Z,11.72
2023-03-29T11:23:57.914Z,11.79
2023-03-29T11:26:36.810Z,11.73
2023-03-29T11:29:16.223Z,11.72
2023-03-29T11:32:05.486Z,11.45
2023-03-29T11:34:49.590Z,11.69
2023-03-29T11:37:28.237Z,11.70
2023-03-29T11:40:05.676Z,11.96
2023-03-29T11:42:35.999Z,11.78
2023-03-29T11:45:05.060Z,11.80
2023-03-29T11:47:41.132Z,11.91
2023-03-29T11:50:15.538Z,11.96
2023-03-29T11:53:02.070Z,11.94
2023-03-29T11:55:34.647Z,12.01
2023-03-29T11:58:12.165Z,12.05
2023-03-29T12:00:48.192Z,12.03
2023-03-29T12:03:28.478Z,12.06
2023-03-29T12:06:07.903Z,12.00
2023-03-29T12:08:48.117Z,12.05
2023-03-29T12:11:27.399Z,11.98
2023-03-29T12:13:56.387Z,12.04
2023-03-29T12:16:40.762Z,12.03
2023-03-29T12:19:30.405Z,11.80
2023-03-29T12:21:59.501Z,11.71
2023-03-29T12:24:30.701Z,11.78
2023-03-29T12:27:20.686Z,11.71
2023-03-29T12:30:12.571Z,11.61
2023-03-29T12:33:10.172Z,11.84
2023-03-29T12:35:49.748Z,11.54
2023-03-29T12:38:16.211Z,11.53
2023-03-29T12:40:46.368Z,11.51
2023-03-29T12:43:24.132Z,11.80
2023-03-29T12:45:57.189Z,11.78
2023-03-29T12:48:27.241Z,11.72
2023-03-29T12:51:01.081Z,11.87
2023-03-29T12:53:37.078Z,11.73
2023-03-29T12:56:08.172Z,11.66
2023-03-29T12:58:53.472Z,11.55
2023-03-29T13:01:27.151Z,11.71
2023-03-29T13:04:13.865Z,11.58
2023-03-29T13:06:46.681Z,11.71
2023-03-29T13:09:28.446Z,11.92
2023-03-29T13:11:58.642Z,12.03
2023-03-29T13:14:30.247Z,12.11
2023-03-29T13:17:17.728Z,11.88
2023-03-29T13:19:58.665Z,11.82
2023-03-29T13:22:37.016Z,11.79
2023-03-29T13:25:24.426Z,11.71
2023-03-29T13:28:03.355Z,11.62
2023-03-29T13:30:55.274Z,11.59
2023-03-29T13:33:21.879Z,11.67
2023-03-29T13:36:05.817Z,11.58
2023-03-29T13:38:45.524Z,11.42
2023-03-29T13:41:44.866Z,11.47
2023-03-29T13:44:23.734Z,11.54
2023-03-29T13:47:03.140Z,11.66
2023-03-29T13:49:32.651Z,11.65
2023-03-29T13:52:13.281Z,11.53
2023-03-29T13:54:48.121Z,11.52
2023-03-29T13:57:19.365Z,11.62
2023-03-29T14:00:01.355Z,11.57
2023-03-29T14:02:32.703Z,11.64
2023-03-29T14:05:02.100Z,11.58
2023-03-29T14:07:33.404Z,11.63
2023-03-29T14:10:01.298Z,11.58
2023-03-29T14:12:36.023Z,11.56
2023-03-29T14:15:06.233Z,11.72
2023-03-29T14:17:33.710Z,11.69
2023-03-29T14:20:00.970Z,11.75
2023-03-29T14:22:33.837Z,11.64
2023-03-29T14:25:13.260Z,11.50
2023-03-29T14:27:41.758Z,11.44
2023-03-29T14:30:27.577Z,11.55
2023-03-29T14:32:54.721Z,11.43
2023-03-29T14:35:29.646Z,11.34
2023-03-29T14:37:56.612Z,11.37
2023-03-29T14:40:23.718Z,11.42
2023-03-29T14:42:51.290Z,11.44
2023-03-29T14:45:23.271Z,11.44
2023-03-29T14:47:50.897Z,11.44
2023-03-29T14:50:21.360Z,11.39
2023-03-29T14:52:52.291Z,11.22
2023-03-29T14:55:23.662Z,11.19
2023-03-29T14:57:53.285Z,11.02
2023-03-29T15:00:26.910Z,11.05
2023-03-29T15:02:54.894Z,11.25
2023-03-29T15:05:34.410Z,11.32
2023-03-29T15:08:02.907Z,11.22
2023-03-29T15:10:33.404Z,11.03
2023-03-29T15:13:02.680Z,10.97
2023-03-29T15:15:32.939Z,10.89
2023-03-29T15:18:00.937Z,10.93
2023-03-29T15:20:29.154Z,11.07
2023-03-29T15:23:07.706Z,11.07
2023-03-29T15:25:39.347Z,11.09
2023-03-29T15:28:06.405Z,11.07
2023-03-29T15:30:39.127Z,10.91
2023-03-29T15:33:19.370Z,10.76
2023-03-29T15:35:50.465Z,10.70
2023-03-29T15:38:17.841Z,10.59
2023-03-29T15:40:44.580Z,10.77
2023-03-29T15:43:12.000Z,10.82
2023-03-29T15:45:38.549Z,10.81
2023-03-29T15:48:23.581Z,10.68
2023-03-29T15:50:50.577Z,10.64
2023-03-29T15:53:18.304Z,10.53
2023-03-29T15:55:48.036Z,10.52
2023-03-29T15:58:16.894Z,10.39
2023-03-29T16:00:48.269Z,10.29
2023-03-29T16:03:16.154Z,10.33
2023-03-29T16:05:43.993Z,10.26
2023-03-29T16:08:12.966Z,10.31
2023-03-29T16:10:41.502Z,10.35
2023-03-29T16:13:09.861Z,10.36
2023-03-29T16:15:36.877Z,10.33
2023-03-29T16:18:03.821Z,10.31
2023-03-29T16:20:30.495Z,10.29
2023-03-29T16:22:57.070Z,10.25
2023-03-29T16:25:24.279Z,10.20
2023-03-29T16:27:52.567Z,10.22
2023-03-29T16:30:19.928Z,10.11
2023-03-29T16:32:46.797Z,10.12
2023-03-29T16:35:32.144Z,9.99
2023-03-29T16:37:59.001Z,9.90
2023-03-29T16:40:26.014Z,9.91
2023-03-29T16:42:52.622Z,9.71
2023-03-29T16:45:20.304Z,9.68
2023-03-29T16:47:47.198Z,9.68
2023-03-29T16:50:16.502Z,9.62
2023-03-29T16:52:43.233Z,9.59
2023-03-29T16:55:12.360Z,9.61
2023-03-29T16:57:40.171Z,9.55
2023-03-29T17:00:15.927Z,9.45
2023-03-29T17:02:43.736Z,9.42
2023-03-29T17:05:11.944Z,9.46
2023-03-29T17:07:39.618Z,9.48
2023-03-29T17:10:08.336Z,9.41
2023-03-29T17:12:35.492Z,9.39
2023-03-29T17:15:02.718Z,9.43
2023-03-29T17:17:29.402Z,9.37
2023-03-29T17:19:56.708Z,9.36
2023-03-29T17:22:24.273Z,9.39
2023-03-29T17:24:51.297Z,9.41
2023-03-29T17:27:18.827Z,9.33
2023-03-29T17:29:45.438Z,9.31
2023-03-29T17:32:11.972Z,9.23
2023-03-29T17:34:38.953Z,9.18
2023-03-29T17:37:05.636Z,9.13
2023-03-29T17:39:33.161Z,9.04
2023-03-29T17:41:59.817Z,8.98
2023-03-29T17:44:26.992Z,8.87
2023-03-29T17:46:53.715Z,8.81
2023-03-29T17:49:20.767Z,8.78
2023-03-29T17:51:47.343Z,8.74
2023-03-29T17:54:13.933Z,8.73
2023-03-29T17:56:40.914Z,8.64
2023-03-29T17:59:07.730Z,8.55
2023-03-29T18:01:37.006Z,8.38
2023-03-29T18:04:05.232Z,8.30
2023-03-29T18:06:32.205Z,8.18
2023-03-29T18:09:01.418Z,8.15
2023-03-29T18:11:29.526Z,8.10
2023-03-29T18:13:59.904Z,8.00
2023-03-29T18:16:26.814Z,7.88
2023-03-29T18:18:53.437Z,7.79
2023-03-29T18:21:21.040Z,7.73
2023-03-29T18:23:49.356Z,7.64
2023-03-29T18:26:17.323Z,7.62
2023-03-29T18:28:48.209Z,7.56
2023-03-29T18:31:15.632Z,7.56
2023-03-29T18:33:42.714Z,7.46
2023-03-29T18:36:12.927Z,7.60
2023-03-29T18:38:43.427Z,7.55
2023-03-29T18:41:12.652Z,7.48
2023-03-29T18:43:41.210Z,7.54
2023-03-29T18:46:08.241Z,7.53
2023-03-29T18:48:41.879Z,7.48
2023-03-29T18:51:10.464Z,7.47
2023-03-29T18:53:38.776Z,7.55
2023-03-29T18:56:06.534Z,7.55
2023-03-29T18:58:33.798Z,7.52
2023-03-29T19:01:03.728Z,7.61
2023-03-29T19:03:31.782Z,7.55
2023-03-29T19:05:58.469Z,7.53
2023-03-29T19:08:26.339Z,7.52
2023-03-29T19:10:54.049Z,7.43
2023-03-29T19:13:20.583Z,7.41
2023-03-29T19:15:47.644Z,7.47
2023-03-29T19:18:14.389Z,7.49
2023-03-29T19:20:40.948Z,7.45
2023-03-29T19:23:07.535Z,7.44
2023-03-29T19:25:34.196Z,7.35
2023-03-29T19:28:03.388Z,7.38
2023-03-29T19:30:30.826Z,7.33
2023-03-29T19:32:57.320Z,7.35
2023-03-29T19:35:23.966Z,7.36
2023-03-29T19:37:50.695Z,7.26
2023-03-29T19:40:17.365Z,7.22
2023-03-29T19:42:43.951Z,7.22
2023-03-29T19:45:10.859Z,7.21
2023-03-29T19:47:37.534Z,7.16
2023-03-29T19:50:05.023Z,7.04
2023-03-29T19:52:31.602Z,7.00
2023-03-29T19:55:01.385Z,6.98
2023-03-29T19:57:28.358Z,7.08
2023-03-29T19:59:55.103Z,7.16
2023-03-29T20:02:21.687Z,7.13
2023-03-29T20:04:48.319Z,7.17
2023-03-29T20:07:14.917Z,7.10
2023-03-29T20:09:44.570Z,7.11
2023-03-29T20:12:11.895Z,7.24
2023-03-29T20:14:40.313Z,7.31
2023-03-29T20:17:07.410Z,7.27
2023-03-29T20:19:36.743Z,7.22
2023-03-29T20:22:04.632Z,7.38
2023-03-29T20:24:32.710Z,7.44
2023-03-29T20:26:59.464Z,7.46
2023-03-29T20:29:26.014Z,7.42
2023-03-29T20:31:52.736Z,7.35
2023-03-29T20:34:19.362Z,7.41
2023-03-29T20:36:46.813Z,7.37
2023-03-29T20:39:17.712Z,7.35
2023-03-29T20:41:47.520Z,7.32
2023-03-29T20:44:16.852Z,7.20
2023-03-29T20:46:46.523Z,7.34
2023-03-29T20:49:13.365Z,7.36
2023-03-29T20:51:42.481Z,7.34
2023-03-29T20:54:10.061Z,7.36
2023-03-29T20:56:40.078Z,7.33
2023-03-29T20:59:10.675Z,7.35
2023-03-29T21:01:40.543Z,7.38
2023-03-29T21:04:10.965Z,7.45
2023-03-29T21:06:39.603Z,7.46
2023-03-29T21:09:06.251Z,7.46
2023-03-29T21:11:33.482Z,7.43
2023-03-29T21:14:00.165Z,7.36
2023-03-29T21:16:30.053Z,7.42
2023-03-29T21:18:56.670Z,7.43
2023-03-29T21:21:23.281Z,7.32
2023-03-29T21:23:49.867Z,7.46
2023-03-29T21:26:16.530Z,7.41
2023-03-29T21:28:43.398Z,7.38
2023-03-29T21:31:10.060Z,7.40
2023-03-29T21:33:36.653Z,7.37
2023-03-29T21:36:03.370Z,7.35
2023-03-29T21:38:30.167Z,7.40
2023-03-29T21:40:58.184Z,7.43
2023-03-29T21:43:24.823Z,7.42
2023-03-29T21:45:51.539Z,7.38
2023-03-29T21:48:18.578Z,7.30
2023-03-29T21:50:50.011Z,7.36
2023-03-29T21:53:16.842Z,7.32
2023-03-29T21:55:43.468Z,7.43
2023-03-29T21:58:10.026Z,7.43
2023-03-29T22:00:36.718Z,7.32
2023-03-29T22:03:03.934Z,7.43
2023-03-29T22:05:30.581Z,7.38
2023-03-29T22:07:58.744Z,7.40
2023-03-29T22:10:25.622Z,7.46
2023-03-29T22:12:52.601Z,7.48
2023-03-29T22:15:22.484Z,7.52
2023-03-29T22:17:49.235Z,7.50
2023-03-29T22:20:18.530Z,7.45
2023-03-29T22:22:49.773Z,7.29
2023-03-29T22:25:19.781Z,7.24
2023-03-29T22:27:48.551Z,7.28
2023-03-29T22:30:17.092Z,7.29
2023-03-29T22:32:43.692Z,7.29
2023-03-29T22:35:10.778Z,7.24
2023-03-29T22:37:42.046Z,7.34
2023-03-29T22:40:10.622Z,7.42
2023-03-29T22:42:37.178Z,7.45
2023-03-29T22:45:04.750Z,7.46
2023-03-29T22:47:31.330Z,7.48
2023-03-29T22:49:57.919Z,7.52
2023-03-29T22:52:24.522Z,7.44
2023-03-29T22:54:51.227Z,7.48
2023-03-29T22:57:17.782Z,7.50
2023-03-29T22:59:44.417Z,7.48
2023-03-29T23:02:11.035Z,7.52
2023-03-29T23:04:38.793Z,7.47
2023-03-29T23:07:06.308Z,7.47
2023-03-29T23:09:32.988Z,7.50
2023-03-29T23:12:01.137Z,7.46
2023-03-29T23:14:27.889Z,7.48
2023-03-29T23:16:54.461Z,7.46
2023-03-29T23:19:21.027Z,7.47
2023-03-29T23:21:47.594Z,7.49
2023-03-29T23:24:18.839Z,7.49
2023-03-29T23:26:45.785Z,7.49
2023-03-29T23:29:12.561Z,7.51
2023-03-29T23:31:39.165Z,7.52
2023-03-29T23:34:05.821Z,7.49
2023-03-29T23:36:32.396Z,7.51
2023-03-29T23:38:59.634Z,7.48
2023-03-29T23:41:28.279Z,7.53
2023-03-29T23:43:57.647Z,7.59
2023-03-29T23:46:24.698Z,7.59
2023-03-29T23:48:51.782Z,7.66
2023-03-29T23:51:22.877Z,7.71
2023-03-29T23:53:50.073Z,7.75
2023-03-29T23:56:16.884Z,7.74
2023-03-29T23:58:44.420Z,7.72
